LGSA/CHQ METAR and TAF weather

Enter ICAO airport designator
Station Type Date Time Source
LGSA METAR 2019/08/17 10:20 UTC NOAA

LGSA 171020Z 03008KT 9999 FEW020 30/20 Q1011


Station Type Date Time Source
LGSA Decoded METAR 2019/08/17 10:20 UTC NOAA

Station name not available
Aug 17, 2019 - 06:20 AM EDT / 2019.08.17 1020 UTC
Wind: from the NNE (030 degrees) at 9 MPH (8 KT):0
Visibility: greater than 7 mile(s):0
Sky conditions: mostly clear
Temperature: 86 F (30 C)
Dew Point: 68 F (20 C)
Relative Humidity: 55%
Pressure (altimeter): 29.85 in. Hg (1011 hPa)
ob: LGSA 171020Z 03008KT 9999 FEW020 30/20 Q1011
cycle: 10

Station Type Date Time Source
LGSA TAF 2019/08/17 06:15 UTC NOAA

TAF LGSA 170500Z 1706/1806 VRB05KT 9999 FEW020
BECMG 1707/1709 03010KT

Example: see airport list